Time;durP1;ratioP1;P1;durP2;ratioP2;P2;SDS_P1;SDS_P2;PMS_P1;PMS_P2;Temp;Humidity;BMP_temperature;BMP_pressure;BME280_temperature;BME280_humidity;BME280_pressure;Samples;Min_cycle;Max_cycle;Signal;HPM_P1;HPM_P2
2021/07/18 00:02:26;;;;;;;25.45;21.37;;;;;;;23.68;100.00;100198.19;1701858;83;21006;-86
2021/07/18 00:04:55;;;;;;;27.65;21.85;;;;;;;23.70;100.00;100186.84;1688545;83;21587;-87
2021/07/18 00:07:22;;;;;;;31.73;21.73;;;;;;;23.69;100.00;100187.38;1687877;83;21108;-86
2021/07/18 00:09:51;;;;;;;24.45;21.90;;;;;;;23.70;100.00;100185.52;1701295;83;21557;-85
2021/07/18 00:12:19;;;;;;;23.87;21.55;;;;;;;23.70;100.00;100182.86;1694076;83;21542;-83
2021/07/18 00:14:48;;;;;;;28.52;21.77;;;;;;;23.69;100.00;100184.71;1694606;83;21022;-84
2021/07/18 00:17:15;;;;;;;24.77;21.82;;;;;;;23.68;100.00;100183.08;1712318;82;20991;-85
2021/07/18 00:19:42;;;;;;;25.77;22.93;;;;;;;23.67;100.00;100184.10;1680704;83;20986;-88
2021/07/18 00:22:10;;;;;;;24.27;21.82;;;;;;;23.67;100.00;100187.28;1696683;83;21142;-85
2021/07/18 00:24:37;;;;;;;25.85;21.85;;;;;;;23.62;100.00;100180.75;1714879;83;21786;-84
2021/07/18 00:27:05;;;;;;;24.02;21.70;;;;;;;23.62;100.00;100187.92;1688210;83;21046;-86
2021/07/18 00:29:32;;;;;;;23.62;21.25;;;;;;;23.59;100.00;100187.00;1683834;83;20986;-87
2021/07/18 00:31:59;;;;;;;28.10;22.13;;;;;;;23.56;100.00;100180.28;1707116;83;21069;-90
2021/07/18 00:34:26;;;;;;;25.60;21.00;;;;;;;23.52;100.00;100183.56;1702295;83;21208;-86
2021/07/18 00:36:53;;;;;;;26.70;22.48;;;;;;;23.50;100.00;100189.09;1687239;83;21157;-83
2021/07/18 00:39:21;;;;;;;24.87;22.48;;;;;;;23.48;100.00;100185.83;1711302;82;21027;-87
2021/07/18 00:41:48;;;;;;;24.37;21.77;;;;;;;23.48;100.00;100190.62;1671825;85;21481;-85
2021/07/18 00:44:15;;;;;;;25.88;23.38;;;;;;;23.47;100.00;100188.19;1708895;83;21521;-87
2021/07/18 00:46:42;;;;;;;29.12;22.95;;;;;;;23.46;100.00;100185.22;1690665;83;20971;-85
2021/07/18 00:49:09;;;;;;;26.30;23.35;;;;;;;23.44;100.00;100188.09;1711886;83;21125;-84
2021/07/18 00:51:36;;;;;;;30.32;24.67;;;;;;;23.44;100.00;100192.58;1705881;83;21085;-86
2021/07/18 00:54:03;;;;;;;29.07;24.43;;;;;;;23.42;100.00;100189.34;1707220;83;21098;-88
2021/07/18 00:56:31;;;;;;;29.72;24.80;;;;;;;23.41;100.00;100196.48;1701836;83;21543;-89
2021/07/18 00:58:59;;;;;;;41.40;27.10;;;;;;;23.41;100.00;100197.80;1706899;83;21057;-85
2021/07/18 01:01:28;;;;;;;32.90;27.40;;;;;;;23.41;100.00;100191.69;1653933;85;21140;-84
2021/07/18 01:03:56;;;;;;;28.32;25.02;;;;;;;23.41;100.00;100190.36;1707019;83;21553;-87
2021/07/18 01:06:24;;;;;;;45.78;26.07;;;;;;;23.40;100.00;100186.88;1707090;82;21553;-85
2021/07/18 01:08:52;;;;;;;28.38;24.10;;;;;;;23.42;100.00;100186.69;1722855;81;21716;-87
2021/07/18 01:11:19;;;;;;;33.10;24.05;;;;;;;23.42;100.00;100186.16;1720974;81;21142;-90
2021/07/18 01:13:46;;;;;;;34.33;25.48;;;;;;;23.40;100.00;100186.07;1691307;82;21235;-84
2021/07/18 01:16:14;;;;;;;34.88;25.37;;;;;;;23.37;100.00;100179.84;1696112;82;21155;-87
2021/07/18 01:18:42;;;;;;;30.05;25.17;;;;;;;23.36;100.00;100181.69;1705601;81;21107;-85
2021/07/18 01:21:10;;;;;;;33.20;27.27;;;;;;;23.35;100.00;100180.59;1728280;81;21042;-84
2021/07/18 01:23:39;;;;;;;33.25;25.30;;;;;;;23.31;100.00;100179.66;1724563;81;21037;-90
2021/07/18 01:26:07;;;;;;;32.15;26.27;;;;;;;23.25;100.00;100173.88;1711083;83;21191;-84
2021/07/18 01:28:34;;;;;;;33.90;27.67;;;;;;;23.19;100.00;100174.72;1642096;85;21079;-85
2021/07/18 01:31:02;;;;;;;40.70;29.20;;;;;;;23.11;100.00;100178.38;1685198;83;21015;-86
2021/07/18 01:33:29;;;;;;;35.85;29.70;;;;;;;23.03;100.00;100181.25;1681556;83;21059;-84
2021/07/18 01:35:56;;;;;;;33.58;30.10;;;;;;;23.02;100.00;100173.51;1680330;83;21204;-89
2021/07/18 01:38:23;;;;;;;36.03;30.48;;;;;;;22.99;100.00;100178.20;1686598;83;21786;-84
2021/07/18 01:40:51;;;;;;;36.33;31.57;;;;;;;22.97;100.00;100180.24;1627913;86;21538;-90
2021/07/18 01:43:19;;;;;;;32.83;29.35;;;;;;;22.96;100.00;100184.44;1693261;83;21034;-87
2021/07/18 01:45:47;;;;;;;38.35;30.25;;;;;;;22.97;100.00;100184.75;1696587;82;21064;-86
2021/07/18 01:48:15;;;;;;;32.78;29.35;;;;;;;22.94;100.00;100190.46;1701304;82;21022;-86
2021/07/18 01:50:43;;;;;;;33.53;28.77;;;;;;;22.93;100.00;100192.81;1722785;82;20948;-84
2021/07/18 01:53:10;;;;;;;31.87;28.50;;;;;;;22.89;100.00;100191.08;1705949;82;21106;-90
2021/07/18 01:55:38;;;;;;;31.77;28.55;;;;;;;22.85;100.00;100188.55;1712101;82;21053;-84
2021/07/18 01:58:07;;;;;;;30.40;27.27;;;;;;;22.84;100.00;100194.88;1668640;84;20956;-86
2021/07/18 02:00:34;;;;;;;31.60;26.33;;;;;;;22.82;100.00;100190.28;1678782;83;21074;-87
2021/07/18 02:03:02;;;;;;;28.83;25.62;;;;;;;22.82;100.00;100190.28;1660089;85;21120;-86
2021/07/18 02:05:29;;;;;;;33.45;26.30;;;;;;;22.80;100.00;100187.84;1670039;83;21010;-85
2021/07/18 02:07:56;;;;;;;33.35;25.70;;;;;;;22.79;100.00;100186.73;1684044;83;21037;-87
2021/07/18 02:10:23;;;;;;;29.70;26.73;;;;;;;22.79;100.00;100184.08;1696228;83;21450;-88
2021/07/18 02:12:52;;;;;;;34.65;26.57;;;;;;;22.78;100.00;100187.75;1655304;84;21073;-87
2021/07/18 02:15:21;;;;;;;36.03;26.20;;;;;;;22.78;100.00;100197.03;1673118;83;21783;-87
2021/07/18 02:17:49;;;;;;;30.88;27.82;;;;;;;22.75;100.00;100191.64;1652466;85;21079;-85
2021/07/18 02:20:22;;;;;;;30.37;27.37;;;;;;;22.72;100.00;100190.71;1653655;84;21225;-85
2021/07/18 02:22:53;;;;;;;30.60;26.90;;;;;;;22.72;100.00;100200.49;1667388;85;21613;-85
2021/07/18 02:25:25;;;;;;;30.72;27.42;;;;;;;22.67;100.00;100198.48;1670632;84;21124;-89
2021/07/18 02:27:54;;;;;;;30.20;26.93;;;;;;;22.67;100.00;100201.94;1687194;83;21141;-88
2021/07/18 02:30:23;;;;;;;36.08;28.12;;;;;;;22.65;100.00;100198.66;1689903;83;21208;-88
2021/07/18 02:32:51;;;;;;;29.85;26.68;;;;;;;22.64;100.00;100205.52;1657583;85;21620;-85
2021/07/18 02:35:20;;;;;;;32.40;26.68;;;;;;;22.58;100.00;100208.47;1695893;82;21061;-85
2021/07/18 02:37:48;;;;;;;31.07;25.10;;;;;;;22.53;100.00;100204.30;1720410;82;21395;-86
2021/07/18 02:40:17;;;;;;;29.50;26.42;;;;;;;22.50;100.00;100204.69;1726511;81;21145;-84
2021/07/18 02:42:44;;;;;;;29.63;26.45;;;;;;;22.52;100.00;100209.30;1728564;81;21525;-85
2021/07/18 02:45:15;;;;;;;33.58;25.92;;;;;;;22.56;100.00;100211.03;1702297;81;21768;-85
2021/07/18 02:47:43;;;;;;;;;;;;;;;22.56;100.00;100207.85;1729953;81;21102;-87
2021/07/18 02:50:13;;;;;;;25.43;22.73;;;;;;;22.59;100.00;100206.13;1732812;81;20207;-82
2021/07/18 02:52:42;;;;;;;29.02;24.90;;;;;;;22.63;100.00;100211.34;1723128;81;21152;-88
2021/07/18 02:55:12;;;;;;;35.60;24.27;;;;;;;22.67;100.00;100215.20;1721127;82;20961;-84
2021/07/18 02:57:40;;;;;;;28.73;24.40;;;;;;;22.76;100.00;100213.67;1671736;83;21641;-84
2021/07/18 03:00:15;;;;;;;29.75;26.25;;;;;;;22.83;100.00;100211.30;1693600;83;21011;-86
2021/07/18 03:02:44;;;;;;;42.78;26.45;;;;;;;22.91;100.00;100217.44;1671785;84;21158;-88
2021/07/18 03:05:17;;;;;;;39.70;26.10;;;;;;;22.98;100.00;100211.08;1654237;84;21107;-85
2021/07/18 03:07:43;;;;;;;39.40;28.97;;;;;;;23.09;100.00;100217.59;1659136;85;21004;-82
2021/07/18 03:10:12;;;;;;;36.10;28.42;;;;;;;23.16;100.00;100214.92;1655320;85;21029;-84
2021/07/18 03:12:39;;;;;;;35.38;27.80;;;;;;;23.25;100.00;100206.23;1662747;84;21105;-87
2021/07/18 03:15:09;;;;;;;31.37;27.07;;;;;;;23.38;100.00;100209.37;1666903;84;21620;-90
2021/07/18 03:17:37;;;;;;;;;;;;;;;23.46;100.00;100207.30;1677502;84;21864;-87
2021/07/18 03:20:08;;;;;;;31.02;26.30;;;;;;;23.53;100.00;100205.12;1648853;84;20164;-87
2021/07/18 03:22:35;;;;;;;32.13;28.63;;;;;;;23.57;100.00;100206.32;1650892;85;21042;-82
2021/07/18 03:25:06;;;;;;;34.40;30.70;;;;;;;23.63;100.00;100212.95;1684843;83;21093;-84
2021/07/18 03:27:34;;;;;;;36.77;30.43;;;;;;;23.66;100.00;100203.73;1691310;84;21577;-85
2021/07/18 03:30:02;;;;;;;41.58;29.67;;;;;;;23.71;100.00;100207.08;1714503;82;21078;-86
2021/07/18 03:32:29;;;;;;;33.70;28.65;;;;;;;23.73;100.00;100197.86;1731988;82;21059;-87
2021/07/18 03:34:57;;;;;;;31.62;27.25;;;;;;;23.77;100.00;100204.89;1735482;81;20962;-84
2021/07/18 03:37:24;;;;;;;31.20;26.17;;;;;;;23.76;100.00;100207.25;1715784;81;21557;-83
2021/07/18 03:39:51;;;;;;;29.82;25.30;;;;;;;23.76;100.00;100200.60;1713842;82;20938;-83
2021/07/18 03:42:19;;;;;;;28.50;24.98;;;;;;;23.76;100.00;100205.42;1739735;80;21218;-85
2021/07/18 03:44:46;;;;;;;32.73;25.52;;;;;;;23.76;100.00;100208.08;1711536;81;21155;-84
2021/07/18 03:47:13;;;;;;;30.90;26.35;;;;;;;23.75;100.00;100214.95;1734566;81;20942;-83
2021/07/18 03:49:40;;;;;;;28.73;25.12;;;;;;;23.73;100.00;100213.01;1713147;81;20998;-85
2021/07/18 03:52:07;;;;;;;26.97;23.57;;;;;;;23.74;100.00;100215.44;1738461;81;21088;-82
2021/07/18 03:54:34;;;;;;;28.67;23.15;;;;;;;23.77;100.00;100214.20;1711441;82;21743;-86
2021/07/18 03:57:01;;;;;;;25.70;22.93;;;;;;;23.81;100.00;100216.75;1711718;82;21172;-86
2021/07/18 03:59:28;;;;;;;28.52;23.92;;;;;;;23.84;100.00;100215.50;1746877;81;21050;-83
2021/07/18 04:01:56;;;;;;;27.42;22.70;;;;;;;23.88;100.00;100210.05;1716267;81;21481;-87
2021/07/18 04:04:23;;;;;;;25.02;22.55;;;;;;;23.93;100.00;100213.73;1747325;81;21093;-85
2021/07/18 04:06:51;;;;;;;25.97;22.82;;;;;;;24.01;100.00;100213.17;1737593;81;21461;-85
2021/07/18 04:09:19;;;;;;;24.92;22.52;;;;;;;24.06;100.00;100207.52;1747497;81;21057;-85
2021/07/18 04:11:46;;;;;;;24.18;21.85;;;;;;;24.12;100.00;100206.37;1747973;81;21053;-84
2021/07/18 04:14:13;;;;;;;24.32;21.75;;;;;;;24.17;100.00;100215.84;1708916;81;20958;-86
2021/07/18 04:16:41;;;;;;;24.63;21.95;;;;;;;24.20;100.00;100206.92;1744905;81;21160;-88
2021/07/18 04:19:10;;;;;;;27.73;20.52;;;;;;;24.27;100.00;100210.88;1742558;80;21211;-82
2021/07/18 04:21:38;;;;;;;21.35;19.30;;;;;;;24.29;100.00;100209.31;1717321;81;21067;-87
2021/07/18 04:24:07;;;;;;;22.93;19.75;;;;;;;24.33;100.00;100202.52;1726714;81;21160;-88
2021/07/18 04:26:34;;;;;;;22.30;19.92;;;;;;;24.38;100.00;100210.69;1712242;81;20994;-88
2021/07/18 04:29:01;;;;;;;20.62;18.52;;;;;;;24.38;100.00;100207.50;1739492;81;20979;-86
2021/07/18 04:31:29;;;;;;;20.68;18.67;;;;;;;24.41;100.00;100212.89;1710411;82;21519;-84
2021/07/18 04:33:56;;;;;;;22.42;19.12;;;;;;;24.44;100.00;100203.69;1726939;82;21442;-84
2021/07/18 04:36:24;;;;;;;20.30;18.20;;;;;;;24.47;100.00;100207.23;1738129;80;20974;-85
2021/07/18 04:38:51;;;;;;;21.07;18.98;;;;;;;24.51;100.00;100209.77;1709354;82;21086;-85
2021/07/18 04:41:19;;;;;;;21.42;19.15;;;;;;;24.54;100.00;100206.16;1714271;80;21151;-86
2021/07/18 04:43:47;;;;;;;19.10;17.20;;;;;;;24.58;100.00;100205.20;1726259;81;21050;-86
2021/07/18 04:46:15;;;;;;;19.37;17.45;;;;;;;24.66;100.00;100216.06;1742160;81;21032;-85
2021/07/18 04:48:42;;;;;;;21.50;18.57;;;;;;;24.73;100.00;100211.53;1711607;81;21045;-87
2021/07/18 04:51:09;;;;;;;19.30;17.52;;;;;;;24.79;100.00;100204.52;1712302;81;21131;-84
2021/07/18 04:53:37;;;;;;;20.70;18.50;;;;;;;24.87;100.00;100208.23;1715382;81;21561;-84
2021/07/18 04:56:04;;;;;;;21.23;18.48;;;;;;;24.95;100.00;100207.14;1702619;82;21096;-85
2021/07/18 04:58:31;;;;;;;22.35;19.67;;;;;;;25.03;100.00;100206.85;1675004;83;21050;-83
2021/07/18 05:00:58;;;;;;;21.73;19.42;;;;;;;25.11;100.00;100210.55;1704320;83;21085;-87
2021/07/18 05:03:25;;;;;;;18.92;17.12;;;;;;;25.18;100.00;100208.62;1697903;83;21050;-84
2021/07/18 05:05:52;;;;;;;21.90;18.50;;;;;;;25.26;100.00;100209.36;1689241;83;21224;-86
2021/07/18 05:08:20;;;;;;;21.97;19.07;;;;;;;25.32;100.00;100209.80;1671585;83;21113;-86
2021/07/18 05:10:49;;;;;;;19.98;17.90;;;;;;;25.40;100.00;100213.52;1709613;82;21062;-87
2021/07/18 05:13:16;;;;;;;21.30;18.95;;;;;;;25.46;100.00;100209.95;1688547;84;21610;-89
2021/07/18 05:15:44;;;;;;;21.68;19.45;;;;;;;25.54;100.00;100212.02;1702103;82;21794;-89
2021/07/18 05:18:13;;;;;;;21.00;18.77;;;;;;;25.62;100.00;100210.37;1700956;83;21029;-83
2021/07/18 05:20:42;;;;;;;22.98;20.43;;;;;;;25.69;100.00;100212.43;1696913;83;21089;-83
2021/07/18 05:23:10;;;;;;;22.32;18.70;;;;;;;25.76;100.00;100214.48;1708796;82;21019;-88
2021/07/18 05:25:38;;;;;;;20.35;17.07;;;;;;;25.81;100.00;100213.30;1722612;82;21671;-89
2021/07/18 05:28:06;;;;;;;21.17;18.95;;;;;;;25.83;100.00;100213.91;1715725;81;21130;-85
2021/07/18 05:30:33;;;;;;;21.27;19.07;;;;;;;25.88;100.00;100207.86;1731598;82;21030;-86
2021/07/18 05:33:00;;;;;;;20.88;18.90;;;;;;;25.93;100.00;100207.18;1710561;82;21052;-88
2021/07/18 05:35:27;;;;;;;23.20;18.45;;;;;;;26.00;100.00;100203.89;1742185;81;21058;-87
2021/07/18 05:37:53;;;;;;;20.23;17.60;;;;;;;26.08;100.00;100208.13;1715448;82;20982;-87
2021/07/18 05:40:20;;;;;;;23.55;19.07;;;;;;;26.14;100.00;100207.21;1731144;82;21370;-87
2021/07/18 05:42:47;;;;;;;20.72;18.52;;;;;;;26.22;100.00;100210.08;1712243;82;21055;-81
2021/07/18 05:45:15;;;;;;;22.35;18.12;;;;;;;26.28;100.00;100213.16;1714912;82;21156;-87
2021/07/18 05:47:42;;;;;;;28.30;21.30;;;;;;;26.34;100.00;100203.43;1670473;85;21029;-84
2021/07/18 05:50:10;;;;;;;28.60;19.62;;;;;;;26.39;100.00;100207.04;1664096;85;21036;-85
2021/07/18 05:52:38;;;;;;;20.68;18.35;;;;;;;26.45;100.00;100204.78;1661874;85;21569;-90
2021/07/18 05:55:07;;;;;;;24.50;17.75;;;;;;;26.52;100.00;100198.51;1675376;84;21622;-86
2021/07/18 05:57:34;;;;;;;20.40;18.30;;;;;;;26.60;100.00;100203.50;1646873;85;21102;-87
2021/07/18 06:00:06;;;;;;;20.90;18.48;;;;;;;26.68;100.00;100203.16;1667598;83;21148;-87
2021/07/18 06:02:35;;;;;;;23.52;18.45;;;;;;;26.79;100.00;100202.09;1684505;84;21008;-83
2021/07/18 06:05:03;;;;;;;22.27;16.95;;;;;;;26.86;100.00;100197.44;1703758;83;21072;-90
2021/07/18 06:07:32;;;;;;;19.62;17.62;;;;;;;26.93;100.00;100199.45;1698496;82;21181;-87
2021/07/18 06:10:00;;;;;;;16.65;15.05;;;;;;;27.00;100.00;100200.67;1682123;83;21205;-87
2021/07/18 06:12:29;;;;;;;19.62;16.57;;;;;;;27.07;100.00;100200.82;1647560;85;21052;-84
2021/07/18 06:14:58;;;;;;;17.95;16.07;;;;;;;27.15;100.00;100203.66;1671839;84;21034;-85
2021/07/18 06:17:25;;;;;;;21.23;17.07;;;;;;;27.20;100.00;100198.95;1692640;83;21066;-87
2021/07/18 06:19:52;;;;;;;19.37;16.40;;;;;;;27.27;100.00;100199.63;1638898;84;21083;-87
2021/07/18 06:22:20;;;;;;;19.02;17.05;;;;;;;27.31;100.00;100199.43;1658850;84;21833;-85
2021/07/18 06:24:47;;;;;;;28.55;21.65;;;;;;;27.38;100.00;100202.77;1680614;84;21020;-87
2021/07/18 06:27:15;;;;;;;20.60;17.50;;;;;;;27.47;100.00;100201.09;1680375;83;21135;-88
2021/07/18 06:29:42;;;;;;;18.85;17.05;;;;;;;27.55;100.00;100202.05;1652539;84;21129;-85
2021/07/18 06:32:10;;;;;;;20.52;18.52;;;;;;;27.66;100.00;100204.39;1690667;83;21149;-86
2021/07/18 06:34:36;;;;;;;19.30;17.32;;;;;;;27.70;100.00;100201.53;1706268;83;21525;-84
2021/07/18 06:37:04;;;;;;;19.15;17.30;;;;;;;27.75;100.00;100199.48;1685455;83;21363;-86
2021/07/18 06:39:31;;;;;;;21.17;16.30;;;;;;;27.84;100.00;100203.39;1675478;83;21567;-86
2021/07/18 06:41:58;;;;;;;19.82;17.57;;;;;;;27.95;100.00;100197.16;1673370;83;21128;-87
2021/07/18 06:44:25;;;;;;;20.30;17.12;;;;;;;28.05;100.00;100197.84;1695798;83;21539;-87
2021/07/18 06:46:52;;;;;;;22.17;16.87;;;;;;;28.15;100.00;100190.56;1672349;83;21129;-86
2021/07/18 06:49:19;;;;;;;19.27;16.67;;;;;;;28.23;100.00;100188.00;1694901;82;21089;-85
2021/07/18 06:51:46;;;;;;;19.20;17.15;;;;;;;28.30;100.00;100186.80;1642514;83;20982;-84
2021/07/18 06:54:13;;;;;;;22.30;16.93;;;;;;;28.38;100.00;100186.89;1680757;83;21077;-86
2021/07/18 06:56:41;;;;;;;19.48;16.12;;;;;;;28.48;100.00;100189.73;1686205;83;21777;-85
2021/07/18 06:59:08;;;;;;;18.77;15.95;;;;;;;28.57;100.00;100183.42;1673190;83;21171;-85
2021/07/18 07:01:35;;;;;;;18.15;15.72;;;;;;;28.68;100.00;100179.55;1665585;84;21067;-83
2021/07/18 07:04:03;;;;;;;18.50;15.95;;;;;;;28.76;100.00;100174.60;1670843;84;21034;-89
2021/07/18 07:06:30;;;;;;;17.92;15.23;;;;;;;28.84;100.00;100173.38;1695975;83;20992;-88
2021/07/18 07:08:57;;;;;;;17.05;15.32;;;;;;;28.93;100.00;100176.42;1675642;83;21547;-84
2021/07/18 07:11:24;;;;;;;17.98;16.10;;;;;;;29.05;100.00;100180.33;1670699;83;21078;-86
2021/07/18 07:13:51;;;;;;;20.30;16.42;;;;;;;29.13;100.00;100175.87;1688681;83;21011;-87
2021/07/18 07:16:19;;;;;;;19.87;15.95;;;;;;;29.20;100.00;100173.84;1686848;83;21027;-90
2021/07/18 07:18:47;;;;;;;19.55;16.30;;;;;;;29.27;100.00;100183.83;1668227;83;21554;-84
2021/07/18 07:21:15;;;;;;;18.20;15.10;;;;;;;29.34;100.00;100177.48;1670559;83;21250;-89
2021/07/18 07:23:43;;;;;;;20.08;15.55;;;;;;;29.41;100.00;100175.42;1685178;83;22858;-88
2021/07/18 07:26:11;;;;;;;14.73;13.43;;;;;;;29.49;100.00;100181.67;1672606;84;21063;-85
2021/07/18 07:28:38;;;;;;;17.30;15.45;;;;;;;29.61;100.00;100182.87;1658002;84;21070;-84
2021/07/18 07:31:05;;;;;;;21.05;15.98;;;;;;;29.70;100.00;100179.19;1692719;83;21122;-84
2021/07/18 07:33:33;;;;;;;17.20;15.58;;;;;;;29.77;100.00;100179.78;1694066;83;21221;-87
2021/07/18 07:36:06;;;;;;;16.30;14.70;;;;;;;29.86;100.00;100178.27;1673111;84;21031;-89
2021/07/18 07:38:34;;;;;;;15.93;14.38;;;;;;;29.98;100.00;100178.12;1700419;83;21846;-86
2021/07/18 07:41:01;;;;;;;16.45;14.07;;;;;;;30.13;100.00;100184.16;1665934;83;21070;-88
2021/07/18 07:43:29;;;;;;;15.68;14.03;;;;;;;30.21;100.00;100183.69;1688269;83;21058;-89
2021/07/18 07:45:56;;;;;;;15.55;14.05;;;;;;;30.29;100.00;100181.59;1681843;83;20963;-86
2021/07/18 07:48:23;;;;;;;14.65;13.10;;;;;;;30.34;100.00;100182.44;1682870;83;21149;-84
2021/07/18 07:50:50;;;;;;;15.03;13.50;;;;;;;30.43;100.00;100185.44;1639057;86;21458;-89
2021/07/18 07:53:17;;;;;;;14.50;13.05;;;;;;;30.57;100.00;100184.48;1677356;83;20967;-87
2021/07/18 07:55:45;;;;;;;16.40;13.20;;;;;;;30.74;100.00;100185.64;1662498;83;20979;-83
2021/07/18 07:58:12;;;;;;;14.58;12.03;;;;;;;30.90;100.00;100185.72;1701144;83;21016;-85
2021/07/18 08:00:39;;;;;;;13.88;12.47;;;;;;;31.05;100.00;100189.02;1692491;83;21809;-87
2021/07/18 08:03:06;;;;;;;22.87;13.13;;;;;;;31.19;100.00;100186.69;1664099;83;21071;-88
2021/07/18 08:05:33;;;;;;;13.53;11.63;;;;;;;31.34;100.00;100192.11;1664595;85;21177;-89
2021/07/18 08:08:01;;;;;;;14.00;12.33;;;;;;;31.45;94.67;100187.56;1636137;86;21173;-91
2021/07/18 08:10:28;;;;;;;15.15;11.97;;;;;;;31.50;85.82;100186.22;1632758;85;21071;-83
2021/07/18 08:12:56;;;;;;;11.48;10.58;;;;;;;31.51;95.83;100178.97;1637326;85;21114;-87
2021/07/18 08:15:24;;;;;;;12.45;10.48;;;;;;;31.55;93.66;100184.08;1642770;86;21027;-87
2021/07/18 08:17:52;;;;;;;11.65;10.53;;;;;;;31.60;85.51;100190.83;1627513;86;21105;-87
2021/07/18 08:20:23;;;;;;;10.98;10.08;;;;;;;31.64;76.09;100191.90;1656609;85;21039;-89
2021/07/18 08:22:53;;;;;;;15.60;11.10;;;;;;;31.73;73.95;100191.67;1682015;83;21426;-88
2021/07/18 08:25:23;;;;;;;13.05;11.70;;;;;;;31.87;81.25;100189.80;1681830;84;22914;-87
2021/07/18 08:27:51;;;;;;;11.90;10.70;;;;;;;32.03;76.17;100189.27;1673646;83;21051;-88
2021/07/18 08:30:19;;;;;;;11.48;10.40;;;;;;;32.16;74.96;100189.27;1663432;85;21030;-86
2021/07/18 08:32:46;;;;;;;13.22;10.63;;;;;;;32.23;68.43;100187.14;1703029;83;21133;-89
2021/07/18 08:35:13;;;;;;;11.78;10.38;;;;;;;32.29;67.76;100191.98;1663751;84;21688;-88
2021/07/18 08:37:42;;;;;;;14.03;11.03;;;;;;;32.33;67.21;100190.34;1668661;84;21081;-89
2021/07/18 08:40:12;;;;;;;12.95;10.72;;;;;;;32.38;69.17;100192.50;1681408;83;21050;-88
2021/07/18 08:42:41;;;;;;;11.23;9.30;;;;;;;32.47;66.31;100187.35;1668591;84;21074;-89
2021/07/18 08:45:11;;;;;;;11.53;9.03;;;;;;;32.56;59.17;100185.72;1667652;83;21010;-88
2021/07/18 08:47:39;;;;;;;11.15;9.40;;;;;;;32.67;64.10;100183.80;1664622;85;21038;-89
2021/07/18 08:50:09;;;;;;;12.07;10.15;;;;;;;32.82;65.15;100176.25;1671780;83;21093;-90
2021/07/18 08:52:36;;;;;;;12.53;9.30;;;;;;;32.96;62.96;100177.81;1683891;83;21733;-88
2021/07/18 08:55:06;;;;;;;13.68;10.45;;;;;;;33.07;59.03;100183.14;1708297;83;21074;-88
2021/07/18 08:57:33;;;;;;;11.15;10.10;;;;;;;33.09;54.48;100186.37;1712130;83;22093;-87
2021/07/18 09:00:00;;;;;;;12.93;10.13;;;;;;;33.11;58.31;100177.48;1713828;83;21165;-86
2021/07/18 09:02:27;;;;;;;10.40;9.50;;;;;;;33.17;58.13;100177.16;1684694;83;21153;-88
2021/07/18 09:04:54;;;;;;;11.10;9.70;;;;;;;33.25;53.83;100181.17;1676202;83;21041;-87
2021/07/18 09:07:21;;;;;;;16.23;9.58;;;;;;;33.21;54.26;100177.95;1687860;83;21102;-87
2021/07/18 09:09:48;;;;;;;12.18;9.75;;;;;;;33.16;53.24;100182.83;1708236;83;21058;-87
2021/07/18 09:12:17;;;;;;;9.85;8.83;;;;;;;33.03;52.13;100168.06;1680273;83;21161;-88
2021/07/18 09:14:47;;;;;;;10.82;9.68;;;;;;;32.52;53.62;100169.85;1657665;83;21294;-89
2021/07/18 09:17:18;;;;;;;8.90;7.40;;;;;;;32.52;53.62;100169.85;1687357;83;21102;-87
2021/07/18 09:19:47;;;;;;;13.70;9.53;;;;;;;32.38;51.05;100174.99;1706316;83;21146;-87
2021/07/18 09:22:23;;;;;;;11.22;9.78;;;;;;;32.40;53.00;100166.11;1684491;81;21708;-88
2021/07/18 09:24:55;;;;;;;9.53;8.38;;;;;;;32.53;53.62;100175.48;1694904;82;21694;-88
2021/07/18 09:27:32;;;;;;;10.32;8.85;;;;;;;32.61;49.14;100167.39;1686585;83;21159;-87
2021/07/18 09:30:12;;;;;;;10.38;9.13;;;;;;;32.67;51.83;100171.67;1691822;82;21121;-87
2021/07/18 09:32:42;;;;;;;9.98;9.03;;;;;;;32.75;55.41;100173.53;1721847;82;21161;-86
2021/07/18 09:35:17;;;;;;;13.32;9.63;;;;;;;32.70;51.27;100175.70;1720628;81;21537;-89
2021/07/18 09:37:47;;;;;;;12.75;9.73;;;;;;;32.70;51.27;100175.70;1708159;81;21983;-89
2021/07/18 09:40:18;;;;;;;16.48;10.00;;;;;;;32.72;53.86;100173.02;1704366;82;21918;-86
2021/07/18 09:42:47;;;;;;;;;;;;;;;32.86;55.06;100169.77;1704734;81;21064;-84
2021/07/18 09:45:26;;;;;;;12.13;9.58;;;;;;;33.06;51.86;100171.56;1725889;82;20431;-87
2021/07/18 09:48:09;;;;;;;12.68;10.20;;;;;;;33.28;52.07;100172.53;1724290;82;21077;-89
2021/07/18 09:50:46;;;;;;;9.58;8.65;;;;;;;33.47;46.44;100169.19;1702681;82;21034;-88
2021/07/18 09:53:22;;;;;;;10.32;9.23;;;;;;;33.63;50.34;100166.66;1741752;81;21140;-84
2021/07/18 09:56:10;;;;;;;11.43;8.30;;;;;;;33.74;47.42;100171.98;1742476;81;21002;-87
2021/07/18 09:58:53;;;;;;;16.50;9.18;;;;;;;33.69;45.63;100165.28;1665973;83;21543;-88
2021/07/18 10:01:22;;;;;;;12.88;8.78;;;;;;;33.65;47.28;100165.84;1663263;84;21093;-85
2021/07/18 10:03:52;;;;;;;9.43;8.38;;;;;;;33.74;45.20;100166.58;1659759;82;21513;-88
2021/07/18 10:06:21;;;;;;;9.48;8.23;;;;;;;33.89;46.92;100167.05;1679532;84;21159;-86
2021/07/18 10:08:51;;;;;;;;;;;;;;;33.94;47.54;100157.54;1655610;83;21091;-86
2021/07/18 10:11:20;;;;;;;;;;;;;;;33.85;45.45;100156.01;1665266;83;20148;-86
2021/07/18 10:13:50;;;;;;;;;;;;;;;33.68;45.21;100165.02;1658081;85;20961;-91
2021/07/18 10:16:19;;;;;;;;;;;;;;;33.62;46.12;100168.30;1665919;84;20146;-86
2021/07/18 10:18:48;;;;;;;;;;;;;;;33.71;45.31;100162.56;1701022;82;21178;-87
2021/07/18 10:21:20;;;;;;;;;;;;;;;33.86;46.51;100158.15;1676616;83;20427;-88
2021/07/18 10:23:50;;;;;;;;;;;;;;;34.04;44.12;100157.98;1717512;81;20144;-88
2021/07/18 10:26:18;;;;;;;;;;;;;;;34.18;46.39;100154.08;1658039;85;20137;-87
2021/07/18 10:28:48;;;;;;;;;;;;;;;34.29;44.96;100155.60;1682407;83;20207;-88
2021/07/18 10:31:44;;;;;;;;;;;;;;;34.39;40.38;100156.85;1686339;83;21217;-86
2021/07/18 10:34:10;;;;;;;;;;;;;;;34.42;41.11;100156.82;1678116;83;20141;-89
2021/07/18 10:36:37;;;;;;;;;;;;;;;34.49;41.69;100161.36;1678985;83;20155;-89
2021/07/18 10:39:32;;;;;;;;;;;;;;;34.54;41.19;100157.77;1712031;83;20193;-88
2021/07/18 10:41:57;;;;;;;;;;;;;;;34.55;40.83;100156.15;1699631;83;20227;-85
2021/07/18 10:44:24;;;;;;;;;;;;;;;34.60;41.50;100146.63;1681270;83;21093;-86
2021/07/18 10:46:54;;;;;;;;;;;;;;;34.68;43.70;100147.08;1687745;83;20167;-86
2021/07/18 10:49:40;;;;;;;;;;;;;;;34.83;42.63;100141.47;1683528;83;20179;-86
2021/07/18 10:52:12;;;;;;;;;;;;;;;34.81;41.44;100149.63;1699154;83;20211;-88
2021/07/18 10:54:42;;;;;;;;;;;;;;;34.47;40.51;100145.97;1702888;83;20205;-89
2021/07/18 10:57:27;;;;;;;;;;;;;;;34.08;41.94;100142.84;1710612;83;21111;-88
2021/07/18 10:59:56;;;;;;;;;;;;;;;33.77;42.52;100145.78;1690336;83;20183;-88
2021/07/18 11:02:32;;;;;;;;;;;;;;;33.47;42.50;100134.94;1704877;83;20129;-89
2021/07/18 11:05:02;;;;;;;;;;;;;;;33.24;43.18;100138.30;1719038;83;20150;-89
2021/07/18 11:07:34;;;;;;;;;;;;;;;32.98;43.76;100131.14;1684352;83;20490;-85
2021/07/18 11:10:13;;;;;;;;;;;;;;;32.87;45.02;100129.59;1676238;83;21163;-89
2021/07/18 11:12:48;;;;;;;;;;;;;;;32.98;46.08;100127.66;1683699;83;20166;-88
2021/07/18 11:15:30;;;;;;;;;;;;;;;33.14;44.84;100125.66;1694890;82;20152;-85
2021/07/18 11:18:00;;;;;;;;;;;;;;;33.17;45.72;100123.21;1650893;83;20561;-87
2021/07/18 11:20:36;;;;;;;;;;;;;;;33.09;43.97;100117.61;1701395;83;20161;-86
2021/07/18 11:23:05;;;;;;;;;;;;;;;32.92;45.19;100116.08;1677347;83;20986;-86